sensor_id;sensor_type;location;lat;lon;timestamp;temperature;humidity
8541;DHT22;4308;51.294;6.590;2022-09-24T00:02:20;14.70;99.90
8541;DHT22;4308;51.294;6.590;2022-09-24T00:04:47;14.70;99.90
8541;DHT22;4308;51.294;6.590;2022-09-24T00:07:15;14.70;99.90
8541;DHT22;4308;51.294;6.590;2022-09-24T00:09:42;14.70;99.90
8541;DHT22;4308;51.294;6.590;2022-09-24T00:12:09;14.80;99.90
8541;DHT22;4308;51.294;6.590;2022-09-24T00:14:36;14.60;99.90
8541;DHT22;4308;51.294;6.590;2022-09-24T00:17:03;14.60;99.90
8541;DHT22;4308;51.294;6.590;2022-09-24T00:19:30;14.50;99.90
8541;DHT22;4308;51.294;6.590;2022-09-24T00:21:58;14.50;99.90
8541;DHT22;4308;51.294;6.590;2022-09-24T00:24:25;14.50;99.90
8541;DHT22;4308;51.294;6.590;2022-09-24T00:26:52;14.50;99.90
8541;DHT22;4308;51.294;6.590;2022-09-24T00:29:21;14.50;99.90
8541;DHT22;4308;51.294;6.590;2022-09-24T00:31:50;14.40;99.90
8541;DHT22;4308;51.294;6.590;2022-09-24T00:34:18;14.40;99.90
8541;DHT22;4308;51.294;6.590;2022-09-24T00:36:46;14.40;99.90
8541;DHT22;4308;51.294;6.590;2022-09-24T00:39:14;14.30;99.90
8541;DHT22;4308;51.294;6.590;2022-09-24T00:41:42;14.40;99.90
8541;DHT22;4308;51.294;6.590;2022-09-24T00:45:04;14.30;99.90
8541;DHT22;4308;51.294;6.590;2022-09-24T00:50:26;14.30;99.90
8541;DHT22;4308;51.294;6.590;2022-09-24T00:53:04;14.30;99.90
8541;DHT22;4308;51.294;6.590;2022-09-24T00:55:33;14.30;99.90
8541;DHT22;4308;51.294;6.590;2022-09-24T00:58:05;14.30;99.90
8541;DHT22;4308;51.294;6.590;2022-09-24T01:00:35;14.30;99.90
8541;DHT22;4308;51.294;6.590;2022-09-24T01:03:07;14.30;99.90
8541;DHT22;4308;51.294;6.590;2022-09-24T01:05:36;14.30;99.90
8541;DHT22;4308;51.294;6.590;2022-09-24T01:08:06;14.30;99.90
8541;DHT22;4308;51.294;6.590;2022-09-24T01:19:46;14.20;99.90
8541;DHT22;4308;51.294;6.590;2022-09-24T01:22:31;14.20;99.90
8541;DHT22;4308;51.294;6.590;2022-09-24T01:30:40;14.10;99.90
8541;DHT22;4308;51.294;6.590;2022-09-24T01:33:11;14.10;99.90
8541;DHT22;4308;51.294;6.590;2022-09-24T01:35:50;14.10;99.90
8541;DHT22;4308;51.294;6.590;2022-09-24T01:40:46;14.00;99.90
8541;DHT22;4308;51.294;6.590;2022-09-24T01:43:16;14.10;99.90
8541;DHT22;4308;51.294;6.590;2022-09-24T01:45:44;14.10;99.90
8541;DHT22;4308;51.294;6.590;2022-09-24T01:48:12;14.10;99.90
8541;DHT22;4308;51.294;6.590;2022-09-24T01:50:54;14.00;99.90
8541;DHT22;4308;51.294;6.590;2022-09-24T01:53:28;14.00;99.90
8541;DHT22;4308;51.294;6.590;2022-09-24T01:56:05;14.00;99.90
8541;DHT22;4308;51.294;6.590;2022-09-24T01:58:41;13.90;99.90
8541;DHT22;4308;51.294;6.590;2022-09-24T02:01:14;13.90;99.90
8541;DHT22;4308;51.294;6.590;2022-09-24T02:03:48;13.90;99.90
8541;DHT22;4308;51.294;6.590;2022-09-24T02:06:22;13.90;99.90
8541;DHT22;4308;51.294;6.590;2022-09-24T02:08:50;13.80;99.90
8541;DHT22;4308;51.294;6.590;2022-09-24T02:11:22;13.80;99.90
8541;DHT22;4308;51.294;6.590;2022-09-24T02:16:35;13.80;99.90
8541;DHT22;4308;51.294;6.590;2022-09-24T02:19:09;13.80;99.90
8541;DHT22;4308;51.294;6.590;2022-09-24T02:21:37;13.80;99.90
8541;DHT22;4308;51.294;6.590;2022-09-24T02:24:21;13.80;99.90
8541;DHT22;4308;51.294;6.590;2022-09-24T02:26:50;13.80;99.90
8541;DHT22;4308;51.294;6.590;2022-09-24T02:29:17;13.80;99.90
8541;DHT22;4308;51.294;6.590;2022-09-24T02:31:47;13.80;99.90
8541;DHT22;4308;51.294;6.590;2022-09-24T02:34:19;13.80;99.90
8541;DHT22;4308;51.294;6.590;2022-09-24T02:36:53;13.80;99.90
8541;DHT22;4308;51.294;6.590;2022-09-24T02:39:21;13.80;99.90
8541;DHT22;4308;51.294;6.590;2022-09-24T02:41:49;13.80;99.90
8541;DHT22;4308;51.294;6.590;2022-09-24T02:44:17;13.70;99.90
8541;DHT22;4308;51.294;6.590;2022-09-24T02:46:46;13.70;99.90
8541;DHT22;4308;51.294;6.590;2022-09-24T02:49:13;13.70;99.90
8541;DHT22;4308;51.294;6.590;2022-09-24T02:51:41;13.70;99.90
8541;DHT22;4308;51.294;6.590;2022-09-24T02:54:09;13.30;99.90
8541;DHT22;4308;51.294;6.590;2022-09-24T02:56:36;13.60;99.90
8541;DHT22;4308;51.294;6.590;2022-09-24T02:59:04;13.60;99.90
8541;DHT22;4308;51.294;6.590;2022-09-24T03:01:31;13.60;99.90
8541;DHT22;4308;51.294;6.590;2022-09-24T03:03:59;13.60;99.90
8541;DHT22;4308;51.294;6.590;2022-09-24T03:06:27;13.60;99.90
8541;DHT22;4308;51.294;6.590;2022-09-24T03:08:54;13.60;99.90
8541;DHT22;4308;51.294;6.590;2022-09-24T03:11:22;13.60;99.90
8541;DHT22;4308;51.294;6.590;2022-09-24T03:13:50;13.50;99.90
8541;DHT22;4308;51.294;6.590;2022-09-24T03:16:18;13.50;99.90
8541;DHT22;4308;51.294;6.590;2022-09-24T03:18:46;13.50;99.90
8541;DHT22;4308;51.294;6.590;2022-09-24T03:21:16;13.50;99.90
8541;DHT22;4308;51.294;6.590;2022-09-24T03:23:44;13.50;99.90
8541;DHT22;4308;51.294;6.590;2022-09-24T03:26:11;13.50;99.90
8541;DHT22;4308;51.294;6.590;2022-09-24T03:28:38;13.50;99.90
8541;DHT22;4308;51.294;6.590;2022-09-24T03:31:06;13.50;99.90
8541;DHT22;4308;51.294;6.590;2022-09-24T03:33:36;13.50;99.90
8541;DHT22;4308;51.294;6.590;2022-09-24T03:38:36;13.40;99.90
8541;DHT22;4308;51.294;6.590;2022-09-24T03:41:05;13.40;99.90
8541;DHT22;4308;51.294;6.590;2022-09-24T03:43:33;13.40;99.90
8541;DHT22;4308;51.294;6.590;2022-09-24T03:46:00;13.40;99.90
8541;DHT22;4308;51.294;6.590;2022-09-24T03:48:28;13.30;99.90
8541;DHT22;4308;51.294;6.590;2022-09-24T03:50:55;13.40;99.90
8541;DHT22;4308;51.294;6.590;2022-09-24T03:53:23;13.40;99.90
8541;DHT22;4308;51.294;6.590;2022-09-24T03:55:55;13.40;99.90
8541;DHT22;4308;51.294;6.590;2022-09-24T03:58:23;13.40;99.90
8541;DHT22;4308;51.294;6.590;2022-09-24T04:00:54;13.40;99.90
8541;DHT22;4308;51.294;6.590;2022-09-24T04:03:21;13.40;99.90
8541;DHT22;4308;51.294;6.590;2022-09-24T04:05:49;13.30;99.90
8541;DHT22;4308;51.294;6.590;2022-09-24T04:08:20;13.30;99.90
8541;DHT22;4308;51.294;6.590;2022-09-24T04:10:49;13.30;99.90
8541;DHT22;4308;51.294;6.590;2022-09-24T04:13:17;13.30;99.90
8541;DHT22;4308;51.294;6.590;2022-09-24T04:15:45;13.30;99.90
8541;DHT22;4308;51.294;6.590;2022-09-24T04:18:13;13.30;99.90
8541;DHT22;4308;51.294;6.590;2022-09-24T04:20:40;13.30;99.90
8541;DHT22;4308;51.294;6.590;2022-09-24T04:23:08;13.30;99.90
8541;DHT22;4308;51.294;6.590;2022-09-24T04:25:36;13.30;99.90
8541;DHT22;4308;51.294;6.590;2022-09-24T04:28:05;13.40;99.90
8541;DHT22;4308;51.294;6.590;2022-09-24T04:30:34;13.30;99.90
8541;DHT22;4308;51.294;6.590;2022-09-24T04:33:01;13.20;99.90
8541;DHT22;4308;51.294;6.590;2022-09-24T04:35:30;13.20;99.90
8541;DHT22;4308;51.294;6.590;2022-09-24T04:37:58;13.20;99.90
8541;DHT22;4308;51.294;6.590;2022-09-24T04:40:26;13.20;99.90
8541;DHT22;4308;51.294;6.590;2022-09-24T04:42:53;13.20;99.90
8541;DHT22;4308;51.294;6.590;2022-09-24T04:45:21;13.20;99.90
8541;DHT22;4308;51.294;6.590;2022-09-24T04:47:49;13.10;99.90
8541;DHT22;4308;51.294;6.590;2022-09-24T04:50:17;13.10;99.90
8541;DHT22;4308;51.294;6.590;2022-09-24T04:52:44;13.10;99.90
8541;DHT22;4308;51.294;6.590;2022-09-24T04:55:11;13.10;99.90
8541;DHT22;4308;51.294;6.590;2022-09-24T04:57:38;13.10;99.90
8541;DHT22;4308;51.294;6.590;2022-09-24T05:00:10;13.00;99.90
8541;DHT22;4308;51.294;6.590;2022-09-24T05:02:38;13.00;99.90
8541;DHT22;4308;51.294;6.590;2022-09-24T05:05:05;13.00;99.90
8541;DHT22;4308;51.294;6.590;2022-09-24T05:07:33;13.00;99.90
8541;DHT22;4308;51.294;6.590;2022-09-24T05:10:00;13.00;99.90
8541;DHT22;4308;51.294;6.590;2022-09-24T05:12:28;13.00;99.90
8541;DHT22;4308;51.294;6.590;2022-09-24T05:14:55;13.00;99.90
8541;DHT22;4308;51.294;6.590;2022-09-24T05:17:22;13.00;99.90
8541;DHT22;4308;51.294;6.590;2022-09-24T05:19:49;13.00;99.90
8541;DHT22;4308;51.294;6.590;2022-09-24T05:22:16;13.10;99.90
8541;DHT22;4308;51.294;6.590;2022-09-24T05:24:43;13.00;99.90
8541;DHT22;4308;51.294;6.590;2022-09-24T05:27:11;13.10;99.90
8541;DHT22;4308;51.294;6.590;2022-09-24T05:29:42;13.10;99.90
8541;DHT22;4308;51.294;6.590;2022-09-24T05:32:12;13.10;99.90
8541;DHT22;4308;51.294;6.590;2022-09-24T05:34:39;13.10;99.90
8541;DHT22;4308;51.294;6.590;2022-09-24T05:37:08;13.10;99.90
8541;DHT22;4308;51.294;6.590;2022-09-24T05:39:36;13.20;99.90
8541;DHT22;4308;51.294;6.590;2022-09-24T05:42:03;13.20;99.90
8541;DHT22;4308;51.294;6.590;2022-09-24T05:44:34;13.20;99.90
8541;DHT22;4308;51.294;6.590;2022-09-24T05:47:01;13.20;99.90
8541;DHT22;4308;51.294;6.590;2022-09-24T05:49:28;13.20;99.90
8541;DHT22;4308;51.294;6.590;2022-09-24T05:51:55;13.20;99.90
8541;DHT22;4308;51.294;6.590;2022-09-24T05:54:23;13.30;99.90
8541;DHT22;4308;51.294;6.590;2022-09-24T05:56:50;13.20;99.90
8541;DHT22;4308;51.294;6.590;2022-09-24T05:59:17;13.30;99.90
8541;DHT22;4308;51.294;6.590;2022-09-24T06:01:44;13.40;99.90
8541;DHT22;4308;51.294;6.590;2022-09-24T06:04:12;13.40;99.90
8541;DHT22;4308;51.294;6.590;2022-09-24T06:06:39;13.40;99.90
8541;DHT22;4308;51.294;6.590;2022-09-24T06:09:06;13.40;99.90
8541;DHT22;4308;51.294;6.590;2022-09-24T06:11:33;13.40;99.90
8541;DHT22;4308;51.294;6.590;2022-09-24T06:14:06;13.50;99.90
8541;DHT22;4308;51.294;6.590;2022-09-24T06:16:33;13.50;99.90
8541;DHT22;4308;51.294;6.590;2022-09-24T06:19:01;13.60;99.90
8541;DHT22;4308;51.294;6.590;2022-09-24T06:21:28;13.70;99.90
8541;DHT22;4308;51.294;6.590;2022-09-24T06:23:55;13.70;99.90
8541;DHT22;4308;51.294;6.590;2022-09-24T06:26:22;13.80;99.90
8541;DHT22;4308;51.294;6.590;2022-09-24T06:28:50;13.90;99.90
8541;DHT22;4308;51.294;6.590;2022-09-24T06:31:17;13.90;99.90
8541;DHT22;4308;51.294;6.590;2022-09-24T06:33:44;14.00;99.90
8541;DHT22;4308;51.294;6.590;2022-09-24T06:36:11;14.10;99.90
8541;DHT22;4308;51.294;6.590;2022-09-24T06:38:39;14.30;99.90
8541;DHT22;4308;51.294;6.590;2022-09-24T06:41:06;14.30;99.90
8541;DHT22;4308;51.294;6.590;2022-09-24T06:43:34;14.40;99.90
8541;DHT22;4308;51.294;6.590;2022-09-24T06:46:01;14.50;99.90
8541;DHT22;4308;51.294;6.590;2022-09-24T06:48:29;14.70;99.90
8541;DHT22;4308;51.294;6.590;2022-09-24T06:53:25;14.70;99.90
8541;DHT22;4308;51.294;6.590;2022-09-24T06:55:56;15.00;99.90
8541;DHT22;4308;51.294;6.590;2022-09-24T07:00:53;15.20;99.90
8541;DHT22;4308;51.294;6.590;2022-09-24T07:03:21;15.20;99.90
8541;DHT22;4308;51.294;6.590;2022-09-24T07:05:48;15.40;99.90
8541;DHT22;4308;51.294;6.590;2022-09-24T07:08:16;15.50;99.90
8541;DHT22;4308;51.294;6.590;2022-09-24T07:10:45;15.60;99.90
8541;DHT22;4308;51.294;6.590;2022-09-24T07:13:13;15.60;99.90
8541;DHT22;4308;51.294;6.590;2022-09-24T07:15:41;15.70;99.90
8541;DHT22;4308;51.294;6.590;2022-09-24T07:18:09;15.80;99.90
8541;DHT22;4308;51.294;6.590;2022-09-24T07:20:36;15.90;99.90
8541;DHT22;4308;51.294;6.590;2022-09-24T07:23:04;16.00;99.90
8541;DHT22;4308;51.294;6.590;2022-09-24T07:25:33;16.00;99.90
8541;DHT22;4308;51.294;6.590;2022-09-24T07:28:08;16.10;99.90
8541;DHT22;4308;51.294;6.590;2022-09-24T07:30:36;16.10;99.90
8541;DHT22;4308;51.294;6.590;2022-09-24T07:33:04;16.10;99.90
8541;DHT22;4308;51.294;6.590;2022-09-24T07:35:31;16.20;99.90
8541;DHT22;4308;51.294;6.590;2022-09-24T07:38:04;16.20;99.90
8541;DHT22;4308;51.294;6.590;2022-09-24T07:40:32;16.30;99.90
8541;DHT22;4308;51.294;6.590;2022-09-24T07:43:00;16.40;99.90
8541;DHT22;4308;51.294;6.590;2022-09-24T07:45:28;16.50;99.90
8541;DHT22;4308;51.294;6.590;2022-09-24T07:48:03;16.60;99.90
8541;DHT22;4308;51.294;6.590;2022-09-24T07:50:33;16.80;99.90
8541;DHT22;4308;51.294;6.590;2022-09-24T07:53:00;16.80;99.90
8541;DHT22;4308;51.294;6.590;2022-09-24T07:55:28;16.80;99.90
8541;DHT22;4308;51.294;6.590;2022-09-24T07:57:55;16.90;99.90
8541;DHT22;4308;51.294;6.590;2022-09-24T08:00:23;16.90;99.90
8541;DHT22;4308;51.294;6.590;2022-09-24T08:02:50;17.10;99.90
8541;DHT22;4308;51.294;6.590;2022-09-24T08:05:18;17.00;99.90
8541;DHT22;4308;51.294;6.590;2022-09-24T08:07:53;17.10;99.90
8541;DHT22;4308;51.294;6.590;2022-09-24T08:10:21;17.10;99.90
8541;DHT22;4308;51.294;6.590;2022-09-24T08:12:49;17.20;99.90
8541;DHT22;4308;51.294;6.590;2022-09-24T08:15:17;17.20;99.90
8541;DHT22;4308;51.294;6.590;2022-09-24T08:17:44;17.30;99.90
8541;DHT22;4308;51.294;6.590;2022-09-24T08:20:12;17.40;99.90
8541;DHT22;4308;51.294;6.590;2022-09-24T08:22:39;17.50;99.90
8541;DHT22;4308;51.294;6.590;2022-09-24T08:25:06;17.70;99.90
8541;DHT22;4308;51.294;6.590;2022-09-24T08:27:34;17.80;99.90
8541;DHT22;4308;51.294;6.590;2022-09-24T08:30:01;18.00;99.90
8541;DHT22;4308;51.294;6.590;2022-09-24T08:32:29;18.10;99.90
8541;DHT22;4308;51.294;6.590;2022-09-24T08:34:56;18.30;99.90
8541;DHT22;4308;51.294;6.590;2022-09-24T08:37:23;18.40;99.90
8541;DHT22;4308;51.294;6.590;2022-09-24T08:39:50;18.60;99.90
8541;DHT22;4308;51.294;6.590;2022-09-24T08:42:43;18.70;99.90
8541;DHT22;4308;51.294;6.590;2022-09-24T08:45:11;18.90;99.90
8541;DHT22;4308;51.294;6.590;2022-09-24T08:47:45;19.00;99.90
8541;DHT22;4308;51.294;6.590;2022-09-24T08:50:22;19.10;99.90
8541;DHT22;4308;51.294;6.590;2022-09-24T08:53:41;19.30;99.90
8541;DHT22;4308;51.294;6.590;2022-09-24T08:55:53;19.40;99.90
8541;DHT22;4308;51.294;6.590;2022-09-24T08:58:59;19.60;99.90
8541;DHT22;4308;51.294;6.590;2022-09-24T09:04:32;19.90;99.90
8541;DHT22;4308;51.294;6.590;2022-09-24T09:07:20;20.00;99.90
8541;DHT22;4308;51.294;6.590;2022-09-24T09:12:33;20.30;99.90
8541;DHT22;4308;51.294;6.590;2022-09-24T09:15:03;20.30;99.90
8541;DHT22;4308;51.294;6.590;2022-09-24T09:17:34;20.50;99.90
8541;DHT22;4308;51.294;6.590;2022-09-24T09:20:09;20.60;99.90
8541;DHT22;4308;51.294;6.590;2022-09-24T09:22:43;20.60;99.90
8541;DHT22;4308;51.294;6.590;2022-09-24T09:25:18;20.70;99.90
8541;DHT22;4308;51.294;6.590;2022-09-24T09:27:59;20.80;99.90
8541;DHT22;4308;51.294;6.590;2022-09-24T09:30:36;20.90;99.90
8541;DHT22;4308;51.294;6.590;2022-09-24T09:35:53;20.90;99.90
8541;DHT22;4308;51.294;6.590;2022-09-24T09:38:48;21.20;99.90
8541;DHT22;4308;51.294;6.590;2022-09-24T09:44:01;21.50;99.90
8541;DHT22;4308;51.294;6.590;2022-09-24T09:46:37;21.50;99.90
8541;DHT22;4308;51.294;6.590;2022-09-24T09:49:08;21.70;99.90
8541;DHT22;4308;51.294;6.590;2022-09-24T09:51:39;21.70;99.90
8541;DHT22;4308;51.294;6.590;2022-09-24T09:54:07;21.80;99.90
8541;DHT22;4308;51.294;6.590;2022-09-24T09:56:45;22.00;99.90
8541;DHT22;4308;51.294;6.590;2022-09-24T09:59:17;22.10;99.90
8541;DHT22;4308;51.294;6.590;2022-09-24T10:01:50;22.10;99.90
8541;DHT22;4308;51.294;6.590;2022-09-24T10:07:15;22.20;99.90
8541;DHT22;4308;51.294;6.590;2022-09-24T10:09:44;22.00;99.90
8541;DHT22;4308;51.294;6.590;2022-09-24T10:12:21;22.00;99.90
8541;DHT22;4308;51.294;6.590;2022-09-24T10:15:03;22.00;99.90
8541;DHT22;4308;51.294;6.590;2022-09-24T10:17:38;22.10;99.90
8541;DHT22;4308;51.294;6.590;2022-09-24T10:20:29;22.30;99.90
8541;DHT22;4308;51.294;6.590;2022-09-24T10:23:06;22.20;99.90
8541;DHT22;4308;51.294;6.590;2022-09-24T10:25:49;22.20;99.90
8541;DHT22;4308;51.294;6.590;2022-09-24T10:28:19;22.10;99.90
8541;DHT22;4308;51.294;6.590;2022-09-24T10:31:10;22.10;99.90
8541;DHT22;4308;51.294;6.590;2022-09-24T10:33:41;22.10;99.90
8541;DHT22;4308;51.294;6.590;2022-09-24T10:36:19;22.10;99.90
8541;DHT22;4308;51.294;6.590;2022-09-24T10:38:47;22.00;99.90
8541;DHT22;4308;51.294;6.590;2022-09-24T10:43:56;21.60;99.90
8541;DHT22;4308;51.294;6.590;2022-09-24T11:35:01;21.40;99.90
8541;DHT22;4308;51.294;6.590;2022-09-24T11:37:59;21.20;99.90
8541;DHT22;4308;51.294;6.590;2022-09-24T11:48:58;20.70;99.90
8541;DHT22;4308;51.294;6.590;2022-09-24T11:54:33;20.60;99.90
8541;DHT22;4308;51.294;6.590;2022-09-24T11:59:55;20.60;99.90
8541;DHT22;4308;51.294;6.590;2022-09-24T12:02:35;20.60;99.90
8541;DHT22;4308;51.294;6.590;2022-09-24T12:08:24;20.90;99.90
8541;DHT22;4308;51.294;6.590;2022-09-24T12:11:08;21.00;99.90
8541;DHT22;4308;51.294;6.590;2022-09-24T12:13:40;21.20;99.90
8541;DHT22;4308;51.294;6.590;2022-09-24T12:16:17;21.00;99.90
8541;DHT22;4308;51.294;6.590;2022-09-24T12:19:15;20.60;99.90
8541;DHT22;4308;51.294;6.590;2022-09-24T12:21:47;20.60;99.90
8541;DHT22;4308;51.294;6.590;2022-09-24T12:24:34;20.60;99.90
8541;DHT22;4308;51.294;6.590;2022-09-24T12:27:13;20.80;99.90
8541;DHT22;4308;51.294;6.590;2022-09-24T12:30:25;20.90;99.90
8541;DHT22;4308;51.294;6.590;2022-09-24T12:33:00;20.90;99.90
8541;DHT22;4308;51.294;6.590;2022-09-24T12:44:11;20.70;99.90
8541;DHT22;4308;51.294;6.590;2022-09-24T12:46:51;20.60;99.90
8541;DHT22;4308;51.294;6.590;2022-09-24T12:49:34;20.50;99.90
8541;DHT22;4308;51.294;6.590;2022-09-24T12:52:15;20.50;99.90
8541;DHT22;4308;51.294;6.590;2022-09-24T12:54:44;20.40;99.90
8541;DHT22;4308;51.294;6.590;2022-09-24T12:59:57;20.40;99.90
8541;DHT22;4308;51.294;6.590;2022-09-24T13:02:30;20.20;99.90
8541;DHT22;4308;51.294;6.590;2022-09-24T13:08:23;20.10;99.90
8541;DHT22;4308;51.294;6.590;2022-09-24T13:10:56;20.10;99.90
8541;DHT22;4308;51.294;6.590;2022-09-24T13:13:29;20.10;99.90
8541;DHT22;4308;51.294;6.590;2022-09-24T13:16:02;19.90;99.90
8541;DHT22;4308;51.294;6.590;2022-09-24T13:18:34;20.10;99.90
8541;DHT22;4308;51.294;6.590;2022-09-24T13:21:07;19.70;99.90
8541;DHT22;4308;51.294;6.590;2022-09-24T13:26:06;19.80;99.90
8541;DHT22;4308;51.294;6.590;2022-09-24T13:28:48;19.80;99.90
8541;DHT22;4308;51.294;6.590;2022-09-24T13:31:39;19.90;99.90
8541;DHT22;4308;51.294;6.590;2022-09-24T13:39:44;18.80;99.90
8541;DHT22;4308;51.294;6.590;2022-09-24T13:42:50;18.70;99.90
8541;DHT22;4308;51.294;6.590;2022-09-24T13:45:21;18.40;99.90
8541;DHT22;4308;51.294;6.590;2022-09-24T13:50:35;18.30;99.90
8541;DHT22;4308;51.294;6.590;2022-09-24T13:55:43;18.30;99.90
8541;DHT22;4308;51.294;6.590;2022-09-24T13:58:32;18.10;99.90
8541;DHT22;4308;51.294;6.590;2022-09-24T14:01:04;18.10;99.90
8541;DHT22;4308;51.294;6.590;2022-09-24T14:03:39;18.10;99.90
8541;DHT22;4308;51.294;6.590;2022-09-24T14:06:11;18.00;99.90
8541;DHT22;4308;51.294;6.590;2022-09-24T14:08:41;17.90;99.90
8541;DHT22;4308;51.294;6.590;2022-09-24T14:11:18;18.00;99.90
8541;DHT22;4308;51.294;6.590;2022-09-24T14:13:46;17.90;99.90
8541;DHT22;4308;51.294;6.590;2022-09-24T14:16:18;17.70;99.90
8541;DHT22;4308;51.294;6.590;2022-09-24T14:18:46;17.50;99.90
8541;DHT22;4308;51.294;6.590;2022-09-24T14:21:22;17.50;99.90
8541;DHT22;4308;51.294;6.590;2022-09-24T14:23:54;17.60;99.90
8541;DHT22;4308;51.294;6.590;2022-09-24T14:26:46;17.70;99.90
8541;DHT22;4308;51.294;6.590;2022-09-24T14:29:23;17.50;99.90
8541;DHT22;4308;51.294;6.590;2022-09-24T14:31:56;17.50;99.90
8541;DHT22;4308;51.294;6.590;2022-09-24T14:34:31;17.20;99.90
8541;DHT22;4308;51.294;6.590;2022-09-24T14:37:10;17.10;99.90
8541;DHT22;4308;51.294;6.590;2022-09-24T14:39:41;16.90;99.90
8541;DHT22;4308;51.294;6.590;2022-09-24T14:42:39;16.50;99.90
8541;DHT22;4308;51.294;6.590;2022-09-24T14:45:06;16.20;99.90
8541;DHT22;4308;51.294;6.590;2022-09-24T14:47:35;16.20;99.90
8541;DHT22;4308;51.294;6.590;2022-09-24T14:50:03;16.00;99.90
8541;DHT22;4308;51.294;6.590;2022-09-24T14:52:54;15.80;99.90
8541;DHT22;4308;51.294;6.590;2022-09-24T14:55:38;15.80;99.90
8541;DHT22;4308;51.294;6.590;2022-09-24T14:58:25;15.80;99.90
8541;DHT22;4308;51.294;6.590;2022-09-24T15:01:18;15.90;99.90
8541;DHT22;4308;51.294;6.590;2022-09-24T15:03:53;15.90;99.90
8541;DHT22;4308;51.294;6.590;2022-09-24T15:06:34;16.00;99.90
8541;DHT22;4308;51.294;6.590;2022-09-24T15:09:05;16.00;99.90
8541;DHT22;4308;51.294;6.590;2022-09-24T15:11:35;16.10;99.90
8541;DHT22;4308;51.294;6.590;2022-09-24T15:16:54;16.00;99.90
8541;DHT22;4308;51.294;6.590;2022-09-24T15:19:25;16.00;99.90
8541;DHT22;4308;51.294;6.590;2022-09-24T15:21:57;16.00;99.90
8541;DHT22;4308;51.294;6.590;2022-09-24T15:24:24;16.10;99.90
8541;DHT22;4308;51.294;6.590;2022-09-24T15:27:21;16.00;99.90
8541;DHT22;4308;51.294;6.590;2022-09-24T15:29:49;16.00;99.90
8541;DHT22;4308;51.294;6.590;2022-09-24T15:32:18;16.10;99.90
8541;DHT22;4308;51.294;6.590;2022-09-24T15:34:46;16.10;99.90
8541;DHT22;4308;51.294;6.590;2022-09-24T15:37:24;16.00;99.90
8541;DHT22;4308;51.294;6.590;2022-09-24T15:39:56;16.00;99.90
8541;DHT22;4308;51.294;6.590;2022-09-24T15:42:25;15.90;99.90
8541;DHT22;4308;51.294;6.590;2022-09-24T15:44:53;16.00;99.90
8541;DHT22;4308;51.294;6.590;2022-09-24T15:47:23;16.10;99.90
8541;DHT22;4308;51.294;6.590;2022-09-24T15:49:50;16.20;99.90
8541;DHT22;4308;51.294;6.590;2022-09-24T15:52:24;15.50;99.90
8541;DHT22;4308;51.294;6.590;2022-09-24T15:55:00;15.80;99.90
8541;DHT22;4308;51.294;6.590;2022-09-24T15:57:28;16.30;99.90
8541;DHT22;4308;51.294;6.590;2022-09-24T15:59:55;16.40;99.90
8541;DHT22;4308;51.294;6.590;2022-09-24T16:02:26;16.30;99.90
8541;DHT22;4308;51.294;6.590;2022-09-24T16:04:58;16.30;99.90
8541;DHT22;4308;51.294;6.590;2022-09-24T16:07:32;15.90;99.90
8541;DHT22;4308;51.294;6.590;2022-09-24T16:12:27;16.10;99.90
8541;DHT22;4308;51.294;6.590;2022-09-24T16:14:55;16.10;99.90
8541;DHT22;4308;51.294;6.590;2022-09-24T16:17:22;16.10;99.90
8541;DHT22;4308;51.294;6.590;2022-09-24T16:19:50;16.10;99.90
8541;DHT22;4308;51.294;6.590;2022-09-24T16:22:17;16.00;99.90
8541;DHT22;4308;51.294;6.590;2022-09-24T16:24:46;16.00;99.90
8541;DHT22;4308;51.294;6.590;2022-09-24T16:27:17;16.00;99.90
8541;DHT22;4308;51.294;6.590;2022-09-24T16:29:46;16.10;99.90
8541;DHT22;4308;51.294;6.590;2022-09-24T16:32:13;16.00;99.90
8541;DHT22;4308;51.294;6.590;2022-09-24T16:34:41;16.00;99.90
8541;DHT22;4308;51.294;6.590;2022-09-24T16:37:08;15.90;99.90
8541;DHT22;4308;51.294;6.590;2022-09-24T16:39:38;15.80;99.90
8541;DHT22;4308;51.294;6.590;2022-09-24T16:42:06;15.90;99.90
8541;DHT22;4308;51.294;6.590;2022-09-24T16:44:33;15.90;99.90
8541;DHT22;4308;51.294;6.590;2022-09-24T16:47:00;15.80;99.90
8541;DHT22;4308;51.294;6.590;2022-09-24T16:49:27;15.80;99.90
8541;DHT22;4308;51.294;6.590;2022-09-24T16:51:55;15.90;99.90
8541;DHT22;4308;51.294;6.590;2022-09-24T16:54:22;15.60;99.90
8541;DHT22;4308;51.294;6.590;2022-09-24T16:59:20;15.10;99.90
8541;DHT22;4308;51.294;6.590;2022-09-24T17:01:50;15.20;99.90
8541;DHT22;4308;51.294;6.590;2022-09-24T17:04:18;15.20;99.90
8541;DHT22;4308;51.294;6.590;2022-09-24T17:06:48;15.00;99.90
8541;DHT22;4308;51.294;6.590;2022-09-24T17:09:15;14.70;99.90
8541;DHT22;4308;51.294;6.590;2022-09-24T17:11:43;14.60;99.90
8541;DHT22;4308;51.294;6.590;2022-09-24T17:14:13;14.00;99.90
8541;DHT22;4308;51.294;6.590;2022-09-24T17:16:42;14.00;99.90
8541;DHT22;4308;51.294;6.590;2022-09-24T17:19:10;14.20;99.90
8541;DHT22;4308;51.294;6.590;2022-09-24T17:21:39;14.10;99.90
8541;DHT22;4308;51.294;6.590;2022-09-24T17:24:12;14.10;99.90
8541;DHT22;4308;51.294;6.590;2022-09-24T17:26:45;14.00;99.90
8541;DHT22;4308;51.294;6.590;2022-09-24T17:34:10;13.70;99.90
8541;DHT22;4308;51.294;6.590;2022-09-24T17:36:37;13.90;99.90
8541;DHT22;4308;51.294;6.590;2022-09-24T17:39:04;14.00;99.90
8541;DHT22;4308;51.294;6.590;2022-09-24T17:41:33;13.90;99.90
8541;DHT22;4308;51.294;6.590;2022-09-24T17:44:01;13.80;99.90
8541;DHT22;4308;51.294;6.590;2022-09-24T17:46:29;13.80;99.90
8541;DHT22;4308;51.294;6.590;2022-09-24T17:48:58;13.60;99.90
8541;DHT22;4308;51.294;6.590;2022-09-24T17:51:31;14.00;99.90
8541;DHT22;4308;51.294;6.590;2022-09-24T17:54:01;14.00;99.90
8541;DHT22;4308;51.294;6.590;2022-09-24T17:56:30;14.00;99.90
8541;DHT22;4308;51.294;6.590;2022-09-24T17:58:58;14.00;99.90
8541;DHT22;4308;51.294;6.590;2022-09-24T18:01:28;13.90;99.90
8541;DHT22;4308;51.294;6.590;2022-09-24T18:03:57;13.90;99.90
8541;DHT22;4308;51.294;6.590;2022-09-24T18:06:26;13.90;99.90
8541;DHT22;4308;51.294;6.590;2022-09-24T18:08:59;13.90;99.90
8541;DHT22;4308;51.294;6.590;2022-09-24T18:11:30;13.80;99.90
8541;DHT22;4308;51.294;6.590;2022-09-24T18:16:29;13.80;99.90
8541;DHT22;4308;51.294;6.590;2022-09-24T18:18:59;14.10;99.90
8541;DHT22;4308;51.294;6.590;2022-09-24T18:21:28;13.90;99.90
8541;DHT22;4308;51.294;6.590;2022-09-24T18:23:57;14.00;99.90
8541;DHT22;4308;51.294;6.590;2022-09-24T18:26:27;13.90;99.90
8541;DHT22;4308;51.294;6.590;2022-09-24T18:29:00;14.10;99.90
8541;DHT22;4308;51.294;6.590;2022-09-24T18:31:28;14.00;99.90
8541;DHT22;4308;51.294;6.590;2022-09-24T18:33:58;14.20;99.90
8541;DHT22;4308;51.294;6.590;2022-09-24T18:36:26;13.90;99.90
8541;DHT22;4308;51.294;6.590;2022-09-24T18:38:53;14.20;99.90
8541;DHT22;4308;51.294;6.590;2022-09-24T18:41:22;14.10;99.90
8541;DHT22;4308;51.294;6.590;2022-09-24T18:43:51;14.10;99.90
8541;DHT22;4308;51.294;6.590;2022-09-24T18:46:21;14.30;99.90
8541;DHT22;4308;51.294;6.590;2022-09-24T18:48:50;14.00;99.90
8541;DHT22;4308;51.294;6.590;2022-09-24T18:51:27;14.30;99.90
8541;DHT22;4308;51.294;6.590;2022-09-24T18:54:00;14.30;99.90
8541;DHT22;4308;51.294;6.590;2022-09-24T18:56:28;14.20;99.90
8541;DHT22;4308;51.294;6.590;2022-09-24T18:59:05;14.30;99.90
8541;DHT22;4308;51.294;6.590;2022-09-24T19:01:37;14.20;99.90
8541;DHT22;4308;51.294;6.590;2022-09-24T19:04:05;14.30;99.90
8541;DHT22;4308;51.294;6.590;2022-09-24T19:06:34;14.30;99.90